createdAt,value
2022-07-29T00:01:02.168Z,56.79
2022-07-29T00:03:29.443Z,56.84
2022-07-29T00:05:56.465Z,56.85
2022-07-29T00:08:23.591Z,56.79
2022-07-29T00:10:51.183Z,56.96
2022-07-29T00:13:18.201Z,56.96
2022-07-29T00:15:59.006Z,57.14
2022-07-29T00:18:33.225Z,56.94
2022-07-29T00:21:00.573Z,57.08
2022-07-29T00:23:27.681Z,57.12
2022-07-29T00:25:54.751Z,57.02
2022-07-29T00:28:21.607Z,57.08
2022-07-29T00:30:48.401Z,57.33
2022-07-29T00:33:15.261Z,57.30
2022-07-29T00:35:45.149Z,57.34
2022-07-29T00:38:18.103Z,57.30
2022-07-29T00:40:46.176Z,57.43
2022-07-29T00:43:14.892Z,57.55
2022-07-29T00:45:45.274Z,57.74
2022-07-29T00:48:12.108Z,57.86
2022-07-29T00:50:39.258Z,57.77
2022-07-29T00:53:08.401Z,57.68
2022-07-29T00:55:36.113Z,57.83
2022-07-29T00:58:03.241Z,57.97
2022-07-29T01:00:31.004Z,57.92
2022-07-29T01:02:58.248Z,58.00
2022-07-29T01:05:49.686Z,57.87
2022-07-29T01:08:17.560Z,58.24
2022-07-29T01:10:47.302Z,58.26
2022-07-29T01:13:16.038Z,58.09
2022-07-29T01:15:50.651Z,58.15
2022-07-29T01:18:34.050Z,58.45
2022-07-29T01:21:34.613Z,58.39
2022-07-29T01:24:56.602Z,58.25
2022-07-29T01:27:42.442Z,58.28
2022-07-29T01:30:09.843Z,58.16
2022-07-29T01:32:42.169Z,58.31
2022-07-29T01:35:22.465Z,58.35
2022-07-29T01:38:13.784Z,58.37
2022-07-29T01:41:13.635Z,58.34
2022-07-29T01:43:53.330Z,58.29
2022-07-29T01:46:38.691Z,58.31
2022-07-29T01:49:18.245Z,58.53
2022-07-29T01:51:53.447Z,58.67
2022-07-29T01:54:57.434Z,58.79
2022-07-29T01:57:30.844Z,58.71
2022-07-29T02:00:00.257Z,58.66
2022-07-29T02:02:29.570Z,58.68
2022-07-29T02:04:58.951Z,58.72
2022-07-29T02:07:29.825Z,58.62
2022-07-29T02:09:59.424Z,59.08
2022-07-29T02:12:28.016Z,58.91
2022-07-29T02:14:57.653Z,58.98
2022-07-29T02:17:58.067Z,59.12
2022-07-29T02:20:28.089Z,59.22
2022-07-29T02:22:56.913Z,59.15
2022-07-29T02:25:25.892Z,59.30
2022-07-29T02:28:06.746Z,59.34
2022-07-29T02:30:37.707Z,59.29
2022-07-29T02:33:06.680Z,59.48
2022-07-29T02:35:34.862Z,59.44
2022-07-29T02:38:21.911Z,59.67
2022-07-29T02:40:51.736Z,59.63
2022-07-29T02:43:20.631Z,59.71
2022-07-29T02:45:53.263Z,59.95
2022-07-29T02:48:24.827Z,59.95
2022-07-29T02:51:03.109Z,59.66
2022-07-29T02:53:34.300Z,59.73
2022-07-29T02:56:09.236Z,59.87
2022-07-29T02:58:42.285Z,59.68
2022-07-29T03:01:23.785Z,59.83
2022-07-29T03:03:54.327Z,60.06
2022-07-29T03:06:30.962Z,60.00
2022-07-29T03:09:12.840Z,60.18
2022-07-29T03:11:49.582Z,60.15
2022-07-29T03:14:19.613Z,60.05
2022-07-29T03:16:47.878Z,60.29
2022-07-29T03:19:15.150Z,60.16
2022-07-29T03:21:42.019Z,60.31
2022-07-29T03:24:10.729Z,60.27
2022-07-29T03:26:38.173Z,60.21
2022-07-29T03:29:05.130Z,60.25
2022-07-29T03:31:33.428Z,60.36
2022-07-29T03:34:01.012Z,60.33
2022-07-29T03:36:27.921Z,60.73
2022-07-29T03:38:55.779Z,60.47
2022-07-29T03:41:25.206Z,60.61
2022-07-29T03:43:53.198Z,60.54
2022-07-29T03:46:24.792Z,61.06
2022-07-29T03:48:57.608Z,60.86
2022-07-29T03:51:33.435Z,60.83
2022-07-29T03:54:14.388Z,60.90
2022-07-29T03:56:47.402Z,61.13
2022-07-29T03:59:16.612Z,60.85
2022-07-29T04:01:44.466Z,61.04
2022-07-29T04:04:12.160Z,60.97
2022-07-29T04:06:44.440Z,61.29
2022-07-29T04:09:13.357Z,61.44
2022-07-29T04:11:59.676Z,61.27
2022-07-29T04:14:29.259Z,61.48
2022-07-29T04:16:56.427Z,61.65
2022-07-29T04:19:23.722Z,61.49
2022-07-29T04:21:50.798Z,61.47
2022-07-29T04:24:18.603Z,61.76
2022-07-29T04:26:47.829Z,61.78
2022-07-29T04:29:15.510Z,62.06
2022-07-29T04:31:43.419Z,62.05
2022-07-29T04:34:11.030Z,62.21
2022-07-29T04:36:37.986Z,62.63
2022-07-29T04:39:05.441Z,62.43
2022-07-29T04:41:33.036Z,62.31
2022-07-29T04:44:02.170Z,62.48
2022-07-29T04:46:29.282Z,62.69
2022-07-29T04:48:56.474Z,62.71
2022-07-29T04:51:23.439Z,62.81
2022-07-29T04:53:50.290Z,62.74
2022-07-29T04:56:17.140Z,62.77
2022-07-29T04:58:43.985Z,63.04
2022-07-29T05:01:10.895Z,63.04
2022-07-29T05:03:37.906Z,63.34
2022-07-29T05:06:04.747Z,63.43
2022-07-29T05:08:31.640Z,63.76
2022-07-29T05:10:58.644Z,63.81
2022-07-29T05:13:46.330Z,63.59
2022-07-29T05:16:14.675Z,64.72
2022-07-29T05:18:42.856Z,63.64
2022-07-29T05:21:09.661Z,63.77
2022-07-29T05:23:36.780Z,64.01
2022-07-29T05:26:03.951Z,64.17
2022-07-29T05:28:36.310Z,64.46
2022-07-29T05:31:03.449Z,64.39
2022-07-29T05:33:36.229Z,64.59
2022-07-29T05:36:08.068Z,64.81
2022-07-29T05:38:36.817Z,64.98
2022-07-29T05:41:04.357Z,64.92
2022-07-29T05:43:31.500Z,65.23
2022-07-29T05:45:58.973Z,65.12
2022-07-29T05:48:26.542Z,65.47
2022-07-29T05:50:53.845Z,65.69
2022-07-29T05:53:21.152Z,65.76
2022-07-29T05:55:52.810Z,65.74
2022-07-29T05:58:20.374Z,65.92
2022-07-29T06:00:47.814Z,66.01
2022-07-29T06:03:15.120Z,66.03
2022-07-29T06:05:42.022Z,66.03
2022-07-29T06:08:08.867Z,66.08
2022-07-29T06:10:37.014Z,66.30
2022-07-29T06:13:04.212Z,66.22
2022-07-29T06:15:31.293Z,66.87
2022-07-29T06:17:59.870Z,66.69
2022-07-29T06:20:31.849Z,66.81
2022-07-29T06:22:59.414Z,67.00
2022-07-29T06:25:26.679Z,67.33
2022-07-29T06:27:53.745Z,67.10
2022-07-29T06:30:20.920Z,67.35
2022-07-29T06:32:48.339Z,67.43
2022-07-29T06:35:41.130Z,67.26
2022-07-29T06:38:08.406Z,67.36
2022-07-29T06:41:04.058Z,67.12
2022-07-29T06:43:52.389Z,67.28
2022-07-29T06:46:23.373Z,67.19
2022-07-29T06:48:51.564Z,67.19
2022-07-29T06:51:22.284Z,67.49
2022-07-29T06:53:59.671Z,67.44
2022-07-29T06:56:39.124Z,67.21
2022-07-29T06:59:09.244Z,67.08
2022-07-29T07:01:41.346Z,67.05
2022-07-29T07:04:10.011Z,66.82
2022-07-29T07:06:37.730Z,66.82
2022-07-29T07:09:05.212Z,66.54
2022-07-29T07:11:32.497Z,66.39
2022-07-29T07:14:03.396Z,66.72
2022-07-29T07:16:32.066Z,66.46
2022-07-29T07:18:59.344Z,66.02
2022-07-29T07:21:26.423Z,65.89
2022-07-29T07:23:57.252Z,65.99
2022-07-29T07:26:24.199Z,65.92
2022-07-29T07:28:51.289Z,65.53
2022-07-29T07:31:18.560Z,65.39
2022-07-29T07:33:45.547Z,65.44
2022-07-29T07:36:12.700Z,64.81
2022-07-29T07:38:42.929Z,64.94
2022-07-29T07:41:09.870Z,64.70
2022-07-29T07:43:36.662Z,63.69
2022-07-29T07:46:03.601Z,62.87
2022-07-29T07:48:30.607Z,62.31
2022-07-29T07:50:57.585Z,62.25
2022-07-29T07:53:25.265Z,61.72
2022-07-29T07:58:39.928Z,61.30
2022-07-29T08:01:07.717Z,60.82
2022-07-29T08:03:35.083Z,60.61
2022-07-29T08:06:02.628Z,60.05
2022-07-29T08:08:29.553Z,60.34
2022-07-29T08:11:02.130Z,60.48
2022-07-29T08:13:33.070Z,60.13
2022-07-29T08:16:01.904Z,60.24
2022-07-29T08:18:31.834Z,60.36
2022-07-29T08:20:59.754Z,59.92
2022-07-29T08:23:32.841Z,59.80
2022-07-29T08:26:14.272Z,59.87
2022-07-29T08:28:47.196Z,59.22
2022-07-29T08:31:15.583Z,59.32
2022-07-29T08:33:43.472Z,58.29
2022-07-29T08:36:10.801Z,58.04
2022-07-29T08:38:37.683Z,58.32
2022-07-29T08:41:04.675Z,58.13
2022-07-29T08:43:31.726Z,58.78
2022-07-29T08:45:58.758Z,58.63
2022-07-29T08:48:25.958Z,58.75
2022-07-29T08:50:58.038Z,58.22
2022-07-29T08:53:28.417Z,58.37
2022-07-29T08:55:57.225Z,57.80
2022-07-29T08:58:25.720Z,56.43
2022-07-29T09:00:56.508Z,56.46
2022-07-29T09:03:31.722Z,56.18
2022-07-29T09:06:00.624Z,56.25
2022-07-29T09:08:28.072Z,55.98
2022-07-29T09:10:57.129Z,54.87
2022-07-29T09:13:24.653Z,54.83
2022-07-29T09:15:51.826Z,54.77
2022-07-29T09:18:46.026Z,55.24
2022-07-29T09:21:37.056Z,53.52
2022-07-29T09:24:08.200Z,53.34
2022-07-29T09:26:46.882Z,51.46
2022-07-29T09:29:23.768Z,52.42
2022-07-29T09:31:55.934Z,52.42
2022-07-29T09:34:32.773Z,51.25
2022-07-29T09:36:59.767Z,50.36
2022-07-29T09:39:34.318Z,50.33
2022-07-29T09:42:07.499Z,50.41
2022-07-29T09:44:47.878Z,50.29
2022-07-29T09:47:15.485Z,49.87
2022-07-29T09:50:00.416Z,49.31
2022-07-29T09:52:31.436Z,49.09
2022-07-29T09:55:09.531Z,48.47
2022-07-29T09:57:36.433Z,48.28
2022-07-29T10:00:12.133Z,47.86
2022-07-29T10:02:45.312Z,48.47
2022-07-29T10:05:26.039Z,47.97
2022-07-29T10:07:58.756Z,48.21
2022-07-29T10:10:37.792Z,47.96
2022-07-29T10:13:16.050Z,47.09
2022-07-29T10:15:46.992Z,47.27
2022-07-29T10:18:18.574Z,47.77
2022-07-29T10:20:46.182Z,47.82
2022-07-29T10:23:13.779Z,48.18
2022-07-29T10:25:45.973Z,48.76
2022-07-29T10:28:16.464Z,48.55
2022-07-29T10:30:46.247Z,48.29
2022-07-29T10:33:52.805Z,48.61
2022-07-29T10:36:40.216Z,48.92
2022-07-29T10:39:44.765Z,48.24
2022-07-29T10:42:33.572Z,48.80
2022-07-29T10:45:04.184Z,48.42
2022-07-29T10:47:31.874Z,48.96
2022-07-29T10:50:06.343Z,48.34
2022-07-29T10:52:57.478Z,48.09
2022-07-29T10:55:39.432Z,47.15
2022-07-29T10:58:20.786Z,46.43
2022-07-29T11:00:53.953Z,47.18
2022-07-29T11:03:52.226Z,47.06
2022-07-29T11:06:26.740Z,45.77
2022-07-29T11:09:35.070Z,45.31
2022-07-29T11:12:39.325Z,45.09
2022-07-29T11:15:18.541Z,44.81
2022-07-29T11:18:01.430Z,41.75
2022-07-29T11:20:49.910Z,41.36
2022-07-29T11:23:33.976Z,40.53
2022-07-29T11:29:04.787Z,40.60
2022-07-29T11:31:50.189Z,41.06
2022-07-29T11:34:20.918Z,39.98
2022-07-29T11:37:14.000Z,39.37
2022-07-29T11:39:47.850Z,39.06
2022-07-29T11:42:17.706Z,38.58
2022-07-29T11:45:42.733Z,39.91
2022-07-29T11:48:27.574Z,39.15
2022-07-29T11:50:48.173Z,40.12
2022-07-29T11:56:03.456Z,39.91
2022-07-29T11:58:31.673Z,39.54
2022-07-29T12:00:58.703Z,39.26
2022-07-29T12:03:35.349Z,39.90
2022-07-29T12:06:02.938Z,39.96
2022-07-29T12:07:03.797Z,39.32
2022-07-29T12:08:31.067Z,39.63
2022-07-29T12:10:58.546Z,39.29
2022-07-29T12:13:37.657Z,40.16
2022-07-29T12:16:05.918Z,39.85
2022-07-29T12:18:32.944Z,38.27
2022-07-29T12:21:05.546Z,38.83
2022-07-29T12:23:34.964Z,38.31
2022-07-29T12:26:10.475Z,37.77
2022-07-29T12:28:40.007Z,37.46
2022-07-29T12:31:10.307Z,37.19
2022-07-29T12:33:37.325Z,38.06
2022-07-29T12:36:17.286Z,38.26
2022-07-29T12:38:45.712Z,38.33
2022-07-29T12:41:12.821Z,38.36
2022-07-29T12:43:56.868Z,38.45
2022-07-29T12:46:23.989Z,38.96
2022-07-29T12:48:55.967Z,39.56
2022-07-29T12:51:49.421Z,39.43
2022-07-29T12:54:16.894Z,39.04
2022-07-29T12:56:46.148Z,39.56
2022-07-29T12:59:23.936Z,39.22
2022-07-29T13:01:53.243Z,39.28
2022-07-29T13:04:34.620Z,39.06
2022-07-29T13:07:10.457Z,38.96
2022-07-29T13:09:41.251Z,39.04
2022-07-29T13:12:11.677Z,38.86
2022-07-29T13:14:44.852Z,38.97
2022-07-29T13:17:18.634Z,38.84
2022-07-29T13:20:10.371Z,38.82
2022-07-29T13:22:37.585Z,39.40
2022-07-29T13:25:05.035Z,39.16
2022-07-29T13:27:35.433Z,38.33
2022-07-29T13:30:05.954Z,38.99
2022-07-29T13:32:37.533Z,39.29
2022-07-29T13:35:09.478Z,38.44
2022-07-29T13:37:39.746Z,38.85
2022-07-29T13:40:12.549Z,38.96
2022-07-29T13:42:40.325Z,38.66
2022-07-29T13:45:08.513Z,38.82
2022-07-29T13:47:35.679Z,38.83
2022-07-29T13:50:06.248Z,38.60
2022-07-29T13:52:34.493Z,37.75
2022-07-29T13:55:01.857Z,37.88
2022-07-29T13:57:28.961Z,37.96
2022-07-29T13:59:56.816Z,38.15
2022-07-29T14:02:25.441Z,38.20
2022-07-29T14:04:54.777Z,37.68
2022-07-29T14:07:22.532Z,38.14
2022-07-29T14:09:49.342Z,38.70
2022-07-29T14:12:16.256Z,38.65
2022-07-29T14:14:43.269Z,38.25
2022-07-29T14:17:10.840Z,38.27
2022-07-29T14:19:39.249Z,37.83
2022-07-29T14:22:08.890Z,37.53
2022-07-29T14:24:37.658Z,37.77
2022-07-29T14:27:06.771Z,38.11
2022-07-29T14:29:37.331Z,37.61
2022-07-29T14:32:08.365Z,37.10
2022-07-29T14:34:36.818Z,37.80
2022-07-29T14:37:06.856Z,37.90
2022-07-29T14:39:42.829Z,38.72
2022-07-29T14:42:12.761Z,38.37
2022-07-29T14:44:42.626Z,38.97
2022-07-29T14:47:10.638Z,39.14
2022-07-29T14:49:37.635Z,38.90
2022-07-29T14:52:05.308Z,39.14
2022-07-29T14:54:32.242Z,38.97
2022-07-29T14:56:59.388Z,38.76
2022-07-29T14:59:27.478Z,38.61
2022-07-29T15:01:57.903Z,38.46
2022-07-29T15:04:25.124Z,38.64
2022-07-29T15:06:53.049Z,39.00
2022-07-29T15:09:20.212Z,38.84
2022-07-29T15:11:47.082Z,38.71
2022-07-29T15:14:14.177Z,38.89
2022-07-29T15:16:43.748Z,38.52
2022-07-29T15:19:16.482Z,39.24
2022-07-29T15:21:48.688Z,38.97
2022-07-29T15:24:18.038Z,38.46
2022-07-29T15:26:45.759Z,38.93
2022-07-29T15:29:13.139Z,38.34
2022-07-29T15:31:40.779Z,38.18
2022-07-29T15:34:08.502Z,38.56
2022-07-29T15:36:51.644Z,38.89
2022-07-29T15:39:20.097Z,39.43
2022-07-29T15:41:47.327Z,39.10
2022-07-29T15:44:14.390Z,39.15
2022-07-29T15:47:00.605Z,39.24
2022-07-29T15:49:46.271Z,39.62
2022-07-29T15:52:24.716Z,38.97
2022-07-29T15:54:57.811Z,38.99
2022-07-29T15:57:25.506Z,39.34
2022-07-29T15:59:52.913Z,39.32
2022-07-29T16:02:19.789Z,39.59
2022-07-29T16:04:47.548Z,39.47
2022-07-29T16:07:15.378Z,39.37
2022-07-29T16:09:49.495Z,39.40
2022-07-29T16:12:19.547Z,39.90
2022-07-29T16:14:49.547Z,40.27
2022-07-29T16:17:17.246Z,39.82
2022-07-29T16:19:45.552Z,39.80
2022-07-29T16:22:12.907Z,40.17
2022-07-29T16:24:40.124Z,39.92
2022-07-29T16:27:07.638Z,40.05
2022-07-29T16:29:34.581Z,39.49
2022-07-29T16:32:02.061Z,39.54
2022-07-29T16:34:29.834Z,39.32
2022-07-29T16:36:56.885Z,39.33
2022-07-29T16:39:23.778Z,39.47
2022-07-29T16:41:50.792Z,39.27
2022-07-29T16:44:17.904Z,39.54
2022-07-29T16:46:45.789Z,39.76
2022-07-29T16:49:19.065Z,39.46
2022-07-29T16:51:48.062Z,39.59
2022-07-29T16:54:15.436Z,39.67
2022-07-29T16:56:42.267Z,39.73
2022-07-29T16:59:09.164Z,39.72
2022-07-29T17:01:36.199Z,40.00
2022-07-29T17:04:06.341Z,40.09
2022-07-29T17:06:35.764Z,40.09
2022-07-29T17:09:07.577Z,39.89
2022-07-29T17:11:51.698Z,39.85
2022-07-29T17:14:27.081Z,39.65
2022-07-29T17:17:00.744Z,39.66
2022-07-29T17:19:32.515Z,39.81
2022-07-29T17:22:08.419Z,39.41
2022-07-29T17:24:38.287Z,39.51
2022-07-29T17:27:06.516Z,39.61
2022-07-29T17:29:35.283Z,39.98
2022-07-29T17:32:02.289Z,40.09
2022-07-29T17:34:29.182Z,40.55
2022-07-29T17:36:56.840Z,40.46
2022-07-29T17:39:24.005Z,40.56
2022-07-29T17:41:51.001Z,40.49
2022-07-29T17:44:18.036Z,40.73
2022-07-29T17:46:44.974Z,40.78
2022-07-29T17:49:11.994Z,41.13
2022-07-29T17:51:39.015Z,41.23
2022-07-29T17:54:06.041Z,41.27
2022-07-29T17:56:33.277Z,40.85
2022-07-29T17:59:01.708Z,40.80
2022-07-29T18:01:29.044Z,41.29
2022-07-29T18:03:59.812Z,41.52
2022-07-29T18:06:27.457Z,41.87
2022-07-29T18:08:55.670Z,42.11
2022-07-29T18:11:23.134Z,41.29
2022-07-29T18:13:49.982Z,40.97
2022-07-29T18:16:17.237Z,40.91
2022-07-29T18:18:45.156Z,40.89
2022-07-29T18:21:12.841Z,41.03
2022-07-29T18:23:39.766Z,41.42
2022-07-29T18:26:06.743Z,41.21
2022-07-29T18:28:33.597Z,42.11
2022-07-29T18:31:01.215Z,42.20
2022-07-29T18:33:28.607Z,42.53
2022-07-29T18:36:10.625Z,42.37
2022-07-29T18:38:42.197Z,43.07
2022-07-29T18:41:09.105Z,43.33
2022-07-29T18:43:38.403Z,44.03
2022-07-29T18:46:06.774Z,43.64
2022-07-29T18:48:34.484Z,43.49
2022-07-29T18:51:01.843Z,43.71
2022-07-29T18:53:29.050Z,43.88
2022-07-29T18:56:00.247Z,43.89
2022-07-29T18:58:27.323Z,44.19
2022-07-29T19:00:54.232Z,44.44
2022-07-29T19:03:21.174Z,44.40
2022-07-29T19:05:48.023Z,44.74
2022-07-29T19:08:14.944Z,44.94
2022-07-29T19:10:45.274Z,45.11
2022-07-29T19:13:13.386Z,45.46
2022-07-29T19:15:40.511Z,45.69
2022-07-29T19:18:07.575Z,45.89
2022-07-29T19:20:34.517Z,45.89
2022-07-29T19:23:01.381Z,46.07
2022-07-29T19:25:28.592Z,46.18
2022-07-29T19:27:56.917Z,46.69
2022-07-29T19:30:23.857Z,47.03
2022-07-29T19:32:50.800Z,47.60
2022-07-29T19:35:24.362Z,47.79
2022-07-29T19:37:56.692Z,47.88
2022-07-29T19:40:23.755Z,47.77
2022-07-29T19:42:51.821Z,47.78
2022-07-29T19:45:23.228Z,48.43
2022-07-29T19:47:50.226Z,48.63
2022-07-29T19:50:18.142Z,48.50
2022-07-29T19:52:47.543Z,49.15
2022-07-29T19:55:15.361Z,49.21
2022-07-29T19:57:42.264Z,48.82
2022-07-29T20:00:11.856Z,48.76
2022-07-29T20:02:40.422Z,48.62
2022-07-29T20:05:08.972Z,48.42
2022-07-29T20:07:37.081Z,48.51
2022-07-29T20:10:05.425Z,48.77
2022-07-29T20:12:32.913Z,49.14
2022-07-29T20:14:59.879Z,49.08
2022-07-29T20:17:27.683Z,49.42
2022-07-29T20:19:54.852Z,49.60
2022-07-29T20:22:22.143Z,50.42
2022-07-29T20:24:49.850Z,51.22
2022-07-29T20:27:16.637Z,51.53
2022-07-29T20:29:43.762Z,51.11
2022-07-29T20:32:12.288Z,51.52
2022-07-29T20:34:41.417Z,51.80
2022-07-29T20:37:14.632Z,52.64
2022-07-29T20:39:44.220Z,52.51
2022-07-29T20:42:11.029Z,52.66
2022-07-29T20:44:37.864Z,52.63
2022-07-29T20:47:05.077Z,53.18
2022-07-29T20:49:32.168Z,53.51
2022-07-29T20:51:59.040Z,53.53
2022-07-29T20:54:25.901Z,53.12
2022-07-29T20:56:53.317Z,53.33
2022-07-29T20:59:20.208Z,53.22
2022-07-29T21:01:47.160Z,53.33
2022-07-29T21:04:14.043Z,53.29
2022-07-29T21:06:41.232Z,53.92
2022-07-29T21:09:08.154Z,54.14
2022-07-29T21:11:44.622Z,54.43
2022-07-29T21:14:32.237Z,54.75
2022-07-29T21:16:59.167Z,54.58
2022-07-29T21:19:26.474Z,54.99
2022-07-29T21:21:53.432Z,55.47
2022-07-29T21:24:20.264Z,55.44
2022-07-29T21:26:59.456Z,55.97
2022-07-29T21:29:34.220Z,56.07
2022-07-29T21:32:01.378Z,56.44
2022-07-29T21:34:28.357Z,56.51
2022-07-29T21:36:55.173Z,56.47
2022-07-29T21:39:22.062Z,57.04
2022-07-29T21:41:48.985Z,56.91
2022-07-29T21:44:15.951Z,56.79
2022-07-29T21:46:42.741Z,56.80
2022-07-29T21:49:09.608Z,56.98
2022-07-29T21:51:36.440Z,56.73
2022-07-29T21:54:04.330Z,57.06
2022-07-29T21:56:31.549Z,57.39
2022-07-29T21:58:58.632Z,57.83
2022-07-29T22:01:25.592Z,57.92
2022-07-29T22:03:52.572Z,57.92
2022-07-29T22:06:19.738Z,58.23
2022-07-29T22:08:48.144Z,58.26
2022-07-29T22:11:15.070Z,58.42
2022-07-29T22:13:41.905Z,58.70
2022-07-29T22:16:10.345Z,58.96
2022-07-29T22:18:37.188Z,59.08
2022-07-29T22:21:04.151Z,59.50
2022-07-29T22:23:31.270Z,59.50
2022-07-29T22:25:58.073Z,59.72
2022-07-29T22:28:25.239Z,59.57
2022-07-29T22:30:52.203Z,59.86
2022-07-29T22:33:19.046Z,59.88
2022-07-29T22:35:48.845Z,59.73
2022-07-29T22:38:19.086Z,59.72
2022-07-29T22:40:48.765Z,59.50
2022-07-29T22:43:17.534Z,59.99
2022-07-29T22:45:44.580Z,60.13
2022-07-29T22:48:11.629Z,60.49
2022-07-29T22:50:39.118Z,60.82
2022-07-29T22:53:06.184Z,60.98
2022-07-29T22:55:33.110Z,60.95
2022-07-29T22:58:00.105Z,61.24
2022-07-29T23:00:27.001Z,61.25
2022-07-29T23:02:53.800Z,61.15
2022-07-29T23:05:21.043Z,61.15
2022-07-29T23:07:47.840Z,61.66
2022-07-29T23:10:14.797Z,61.49
2022-07-29T23:12:41.657Z,61.90
2022-07-29T23:15:08.712Z,61.99
2022-07-29T23:17:36.792Z,62.42
2022-07-29T23:20:09.954Z,62.34
2022-07-29T23:22:37.097Z,62.49
2022-07-29T23:25:06.394Z,62.88
2022-07-29T23:27:33.343Z,62.70
2022-07-29T23:30:00.411Z,63.15
2022-07-29T23:32:27.458Z,63.26
2022-07-29T23:34:54.285Z,63.40
2022-07-29T23:37:21.846Z,63.76
2022-07-29T23:39:48.729Z,63.70
2022-07-29T23:42:15.972Z,63.89
2022-07-29T23:44:43.155Z,63.88
2022-07-29T23:47:10.099Z,64.44
2022-07-29T23:49:37.283Z,64.53
2022-07-29T23:52:04.424Z,64.54
2022-07-29T23:54:31.685Z,64.45
2022-07-29T23:56:59.183Z,64.56
2022-07-29T23:59:26.254Z,64.59
